Observations for TRAVERSE CITY CHERR, MI (TVC)

KTVC 202253Z VRB05KT 10SM FEW150 BKN250 07/01 A2960 RMK AO2 SLP030 T00670006
KTVC 202153Z VRB05KT 10SM FEW180 BKN250 08/01 A2963 RMK AO2 SLP037 T00780006
KTVC 202053Z 20008KT 160V230 10SM FEW180 BKN250 08/01 A2964 RMK AO2 SLP044 T00830011 56032  
KTVC 201953Z 18007KT 10SM FEW024 FEW180 BKN250 07/01 A2967 RMK AO2 SLP054 T00720006 
KTVC 201853Z 17006KT 10SM FEW021 SCT250 07/01 A2970 RMK AO2 SLP064 T00670006
KTVC 201753Z VRB06KT 10SM FEW021 BKN250 07/01 A2974 RMK AO2 SLP077 T00670006 10067 21006 58024  
KTVC 201653Z 20008G16KT 10SM FEW025 BKN250 06/01 A2978 RMK AO2 SLP089 T00560006 
KTVC 201553Z 21006KT 10SM FEW180 BKN250 04/M01 A2980 RMK AO2 SLP099 T00441006   
KTVC 201453Z 00000KT 10SM OVC250 02/M02 A2981 RMK AO2 SLP103 T00171022 58012
KTVC 201353Z VRB03KT 10SM SCT180 OVC240 01/M02 A2982 RMK AO2 SLP107 T00061022   
KTVC 201253Z VRB04KT 10SM FEW027 BKN240 00/M03 A2984 RMK AO2 SLP113 T00001033   
KTVC 201153Z 00000KT 10SM SCT027 BKN220 M01/M04 A2985 RMK AO2 SLP116 T10061039 10000 21011 56005
KTVC 201111Z AUTO 19004KT 10SM BKN026 M01/M04 A2985 RMK AO2 T10061039 $
KTVC 201053Z AUTO 19004KT 10SM CLR M01/M04 A2985 RMK AO2 SLP117 T10111044 $ 
KTVC 200953Z AUTO 20004KT 10SM SCT060 M01/M04 A2985 RMK AO2 SLP118 T10061044 $  
KTVC 200853Z AUTO 17003KT 10SM FEW035 FEW055 BKN075 M01/M05 A2986 RMK AO2 SLP121 T10061050 58011 $  
KTVC 200753Z AUTO 20003KT 10SM OVC038 M01/M06 A2989 RMK AO2 SLP130 T10061056 $  
KTVC 200653Z AUTO 21004KT 10SM FEW044 OVC100 M01/M06 A2988 RMK AO2 SLP128 T10061056 $   
KTVC 200553Z AUTO 00000KT 10SM SCT038 BKN070 OVC100 M01/M05 A2990 RMK AO2 SLP133 60000 T10111050 11006 21028 58002 $
KTVC 200453Z AUTO 25005KT 10SM FEW041 OVC050 M01/M05 A2991 RMK AO2 SNB35E47 SLP136 P0000 T10061050 400221028 $  
KTVC 200353Z AUTO 20003KT 10SM BKN039 OVC110 M02/M07 A2990 RMK AO2 SLP135 T10171072 $   
KTVC 200253Z AUTO 24005KT 10SM SCT043 OVC110 M02/M07 A2990 RMK AO2 SLP135 T10171072 58002 $ 
KTVC 200153Z 22004KT 10SM FEW042 BKN090 OVC110 M02/M07 A2991 RMK AO2 SLP137 LAST T10221072 $
KTVC 200053Z 22004KT 10SM FEW037 BKN120 M03/M08 A2990 RMK AO2 SLP135 T10281078 $
KTVC 192353Z 25004KT 10SM BKN036 OVC110 M02/M08 A2991 RMK AO2 SLP136 60000 T10221078 11017 21022 50004 $
KTVC 192253Z 28010KT 10SM OVC035 M02/M08 A2991 RMK AO2 SLP137 T10221078 $   
KTVC 192153Z 27011KT 10SM OVC035 M02/M08 A2990 RMK AO2 SNE34 SLP133 P0000 T10221078 $